CW1120 Goteborg SE current weather conditions

sailwx.info

Wind from 057

Air temperature 15.0° C
Dewpoint 13.7° C

Last reported at 2019-Jul-15 23:53 UTC.
Time now 2019-Jul-16 00:25 UTC

Location: N 58°01' E 011°35'.
View on Google Maps.

See reports from other nearby stations

  
Tides and Currents Weather Stations Pressure Air Temp Water Temp Dewpoint Dewpoint Depression Visibility Wind Speed Wind Dir Waves Ship Positions
date/time (UTC)wind fromknots sea level pressurealtimeterstation pressurevisibilityair tempwater tempwave heightnotes
2019-Jul-16 00:03 057 15.0
2019-Jul-15 23:53 057 15.0
2019-Jul-15 23:43 335 15.0
2019-Jul-15 23:33 335 15.0
2019-Jul-15 23:23 317 1 gusting 4 15.0
2019-Jul-15 23:13 314 3 gusting 6 15.0
2019-Jul-15 23:03 302 2 gusting 5 15.0
2019-Jul-15 22:53 280 1 gusting 3 15.0
2019-Jul-15 22:43 222 0 gusting 3 15.0
2019-Jul-15 22:33 210 15.0
2019-Jul-15 22:23 257 2 gusting 4 15.6
2019-Jul-15 22:13 239 2 gusting 7 15.6
2019-Jul-15 22:03 277 5 gusting 6 15.6
2019-Jul-15 21:53 217 5 gusting 8 15.6
2019-Jul-15 21:43 229 5 gusting 7 15.0
2019-Jul-15 21:33 250 6 gusting 11 14.4
2019-Jul-15 21:23 280 1 gusting 4 13.9
2019-Jul-15 21:13 061 13.9
2019-Jul-15 21:03 044 13.9
2019-Jul-15 20:53 044 13.9
2019-Jul-15 20:43 044 13.9
2019-Jul-15 20:33 044 13.9
2019-Jul-15 20:23 044 14.4
2019-Jul-15 20:13 044 14.4
2019-Jul-15 20:03 044 14.4
2019-Jul-15 19:53 044 15.0
2019-Jul-15 19:43 044 15.6
2019-Jul-15 19:33 044 16.1
2019-Jul-15 19:23 044 16.7
2019-Jul-15 19:13 044 17.2
2019-Jul-15 19:03 044 18.3
2019-Jul-15 18:53 044 18.3
2019-Jul-15 18:43 044 0 gusting 1 18.3
2019-Jul-15 18:33 044 18.3
2019-Jul-15 18:23 344 1 gusting 4 18.9
2019-Jul-15 18:13 065 0 gusting 2 18.9
2019-Jul-15 18:03 011 1 gusting 4 18.9
2019-Jul-15 17:53 040 1 gusting 6 18.9
2019-Jul-15 17:43 040 2 gusting 6 18.9
2019-Jul-15 17:33 020 2 gusting 6 18.9
2019-Jul-15 17:23 063 3 gusting 6 18.9
2019-Jul-15 17:13 018 3 gusting 6 18.9
2019-Jul-15 17:03 054 2 gusting 6 18.9
2019-Jul-15 16:53 053 4 gusting 6 18.9
2019-Jul-15 16:43 346 5 gusting 8 18.9
2019-Jul-15 16:33 008 5 gusting 9 18.9
2019-Jul-15 16:23 022 3 gusting 8 18.9
2019-Jul-15 16:13 028 3 gusting 7 18.3
2019-Jul-15 16:03 007 3 gusting 9 17.8
2019-Jul-15 15:53 049 5 gusting 9 17.2
2019-Jul-15 15:43 021 3 gusting 6 17.2
2019-Jul-15 15:33 001 3 gusting 6 16.7
2019-Jul-15 15:23 029 3 gusting 6 16.7
2019-Jul-15 15:13 044 1 gusting 6 16.1
2019-Jul-15 15:03 038 2 gusting 6 16.1
2019-Jul-15 14:53 047 5 gusting 9 16.7
2019-Jul-15 14:43 007 1 gusting 7 16.7
2019-Jul-15 14:33 004 1 gusting 5 17.2
2019-Jul-15 14:23 335 3 gusting 6 17.2
2019-Jul-15 14:13 319 4 gusting 8 17.2
2019-Jul-15 14:03 342 1 gusting 4 17.2
2019-Jul-15 13:53 290 2 gusting 8 17.2
2019-Jul-15 13:43 306 0 gusting 3 17.2
2019-Jul-15 13:33 242 17.2
2019-Jul-15 13:23 234 0 gusting 3 17.2
2019-Jul-15 13:13 236 2 gusting 3 17.2
2019-Jul-15 13:03 215 0 gusting 4 17.2
2019-Jul-15 12:53 248 4 gusting 6 17.8
2019-Jul-15 12:43 253 0 gusting 3 17.8
2019-Jul-15 12:33 234 1 gusting 4 17.8
2019-Jul-15 12:23 250 1 gusting 3 17.8
2019-Jul-15 12:13 232 1 gusting 4 18.3
2019-Jul-15 12:03 193 2 gusting 4 18.3
2019-Jul-15 11:53 226 2 gusting 4 17.8
2019-Jul-15 11:43 193 2 gusting 6 17.2
2019-Jul-15 11:33 243 3 gusting 5 17.2
2019-Jul-15 11:23 256 3 gusting 5 17.2
2019-Jul-15 11:13 215 2 gusting 5 16.7
2019-Jul-15 11:03 228 2 gusting 5 16.7
2019-Jul-15 10:53 224 1 gusting 4 17.2
2019-Jul-15 10:43 248 2 gusting 6 16.7
2019-Jul-15 10:33 244 1 gusting 4 16.7
2019-Jul-15 10:23 144 3 gusting 6 16.7
2019-Jul-15 10:13 212 2 gusting 6 16.1
2019-Jul-15 10:03 167 2 gusting 7 16.1
2019-Jul-15 09:53 179 3 gusting 7 16.1
2019-Jul-15 09:43 155 4 gusting 7 16.1
2019-Jul-15 09:33 233 2 gusting 6 16.1
2019-Jul-15 09:23 188 1 gusting 8 15.6
2019-Jul-15 09:13 164 5 gusting 8 15.6
2019-Jul-15 09:03 169 6 gusting 12 15.6
2019-Jul-15 08:53 167 284 gusting 11 15.6
2019-Jul-15 08:43 15.6
2019-Jul-15 08:33 15.6
2019-Jul-15 08:23 15.6
2019-Jul-15 08:13 15.6
2019-Jul-15 08:03 15.0
2019-Jul-15 07:53 15.0
2019-Jul-15 07:43 15.0
2019-Jul-15 07:33 15.0
2019-Jul-15 07:23 15.0
2019-Jul-15 07:13 15.0
2019-Jul-15 07:03 15.0
2019-Jul-15 06:53 15.6
2019-Jul-15 06:43 15.6
2019-Jul-15 06:33 148 284 gusting 10 15.6
2019-Jul-15 06:23 158 284 gusting 6 15.6
2019-Jul-15 06:13 15.6
2019-Jul-15 06:03 146 5 gusting 10 15.6
2019-Jul-15 05:53 170 4 gusting 8 15.6
2019-Jul-15 05:43 158 4 gusting 9 15.6
2019-Jul-15 05:33 153 4 gusting 8 15.6
2019-Jul-15 05:23 155 3 gusting 7 15.6
2019-Jul-15 05:13 15.6
2019-Jul-15 05:03 15.6
2019-Jul-15 04:43 151 5 gusting 8 16.1
2019-Jul-15 04:33 165 284 gusting 8 16.1
2019-Jul-15 04:23 16.7
2019-Jul-15 04:13 184 2 gusting 12 16.7
2019-Jul-15 04:03 223 1 gusting 5 16.7
2019-Jul-15 03:53 200 1 gusting 5 16.7
2019-Jul-15 03:43 196 0 gusting 5 16.7
2019-Jul-15 03:33 244 2 gusting 4 16.7
2019-Jul-15 03:23 229 16.1
2019-Jul-15 03:13 140 16.1
2019-Jul-15 03:03 161 16.1
2019-Jul-15 02:53 119 0 gusting 5 16.1
2019-Jul-15 02:43 134 1 gusting 6 16.1
2019-Jul-15 02:33 113 2 gusting 6 16.1
2019-Jul-15 02:23 086 2 gusting 6 16.1
2019-Jul-15 02:13 063 1 gusting 4 16.1
2019-Jul-15 02:03 035 2 gusting 4 16.7
2019-Jul-15 01:53 070 2 gusting 4 16.7
2019-Jul-15 01:43 089 1 gusting 4 16.7
2019-Jul-15 01:33 053 0 gusting 3 16.7
2019-Jul-15 01:23 138 16.7
2019-Jul-15 01:13 162 0 gusting 4 16.7
2019-Jul-15 01:03 154 0 gusting 4 16.7
2019-Jul-15 00:53 138 2 gusting 4 16.7
2019-Jul-15 00:43 169 2 gusting 6 16.7
2019-Jul-15 00:33 169 2 gusting 6 16.7
2019-Jul-15 00:23 166 0 gusting 4 16.1
2019-Jul-15 00:13 152 16.1
2019-Jul-15 00:03 153 16.1
2019-Jul-14 23:53 137 1 gusting 4 16.1
2019-Jul-14 23:43 113 0 gusting 5 15.6
2019-Jul-14 23:33 165 0 gusting 4 15.6
2019-Jul-14 23:23 136 0 gusting 4 15.6
2019-Jul-14 23:13 140 0 gusting 2 15.6
2019-Jul-14 23:03 139 15.6
2019-Jul-14 22:53 122 1 gusting 6 15.6
2019-Jul-14 22:42 146 0 gusting 4 15.6
2019-Jul-14 22:32 121 0 gusting 2 15.6
2019-Jul-14 22:22 111 15.6
2019-Jul-14 22:13 128 2 gusting 6 15.6
2019-Jul-14 22:03 116 1 gusting 6 15.0
2019-Jul-14 21:52 142 0 gusting 4 15.0
2019-Jul-14 21:43 164 0 gusting 6 15.0
2019-Jul-14 21:33 143 1 gusting 5 15.0
2019-Jul-14 21:23 128 15.0
2019-Jul-14 21:13 115 15.0
2019-Jul-14 21:02 105 15.0
2019-Jul-14 20:53 145 0 gusting 3 15.0
2019-Jul-14 20:43 116 1 gusting 6 15.6
2019-Jul-14 20:33 161 0 gusting 4 15.6
2019-Jul-14 20:22 144 2 gusting 6 15.6
2019-Jul-14 20:12 146 0 gusting 4 15.6
2019-Jul-14 20:03 142 0 gusting 5 16.1
2019-Jul-14 19:53 148 0 gusting 4 16.1
2019-Jul-14 19:42 142 1 gusting 6 16.7
2019-Jul-14 19:32 145 1 gusting 8 16.7
2019-Jul-14 19:22 181 3 gusting 9 16.7
2019-Jul-14 19:12 168 3 gusting 8 16.7
2019-Jul-14 19:03 124 3 gusting 7 17.2
2019-Jul-14 18:52 137 3 gusting 6 17.2
2019-Jul-14 18:42 174 1 gusting 8 17.2
2019-Jul-14 18:33 161 4 gusting 9 17.2
2019-Jul-14 18:23 145 3 gusting 12 17.8
2019-Jul-14 18:13 172 4 gusting 9 17.8
2019-Jul-14 18:02 113 4 gusting 9 17.8
2019-Jul-14 17:52 153 4 gusting 7 17.8
2019-Jul-14 17:42 150 4 gusting 8 18.3
2019-Jul-14 17:33 149 3 gusting 7 18.3
2019-Jul-14 17:23 164 4 gusting 11 18.3
2019-Jul-14 17:13 138 3 gusting 8 18.9
2019-Jul-14 17:03 128 4 gusting 10 18.9
2019-Jul-14 16:53 130 2 gusting 11 18.9
2019-Jul-14 16:43 175 2 gusting 8 18.9
2019-Jul-14 16:32 128 4 gusting 7 18.9
2019-Jul-14 16:22 230 284 gusting 9 18.9
2019-Jul-14 16:12 18.9
2019-Jul-14 16:02 19.4
2019-Jul-14 15:53 19.4
2019-Jul-14 15:43 19.4
2019-Jul-14 15:33 19.4
2019-Jul-14 15:23 19.4
2019-Jul-14 15:13 19.4
2019-Jul-14 15:02 19.4
2019-Jul-14 14:52 18.9
2019-Jul-14 14:42 18.9
2019-Jul-14 14:32 18.9
2019-Jul-14 14:23 18.9
2019-Jul-14 14:13 184 7 gusting 13 18.9
2019-Jul-14 14:03 18.9
2019-Jul-14 13:53 18.9
2019-Jul-14 13:43 172 284 gusting 7 18.9
2019-Jul-14 13:22 197 5 gusting 9 18.9
2019-Jul-14 13:12 197 5 gusting 9 18.9
2019-Jul-14 13:02 173 5 gusting 9 18.9
2019-Jul-14 12:52 141 5 gusting 9 18.9
2019-Jul-14 12:32 169 4 gusting 9 19.4
2019-Jul-14 12:22 188 6 gusting 12 19.4
2019-Jul-14 12:13 167 6 gusting 11 20.0
2019-Jul-14 12:03 153 4 gusting 9 19.4
2019-Jul-14 11:42 225 2 gusting 9 19.4
2019-Jul-14 11:32 179 3 gusting 9 18.9
2019-Jul-14 11:22 144 3 gusting 13 18.9
2019-Jul-14 11:12 261 3 gusting 9 18.9
2019-Jul-14 11:02 182 3 gusting 7 18.3
2019-Jul-14 10:52 165 2 gusting 7 18.3
2019-Jul-14 10:42 200 4 gusting 9 18.3
2019-Jul-14 10:32 202 284 gusting 6 18.3
2019-Jul-14 10:23 18.3
2019-Jul-14 10:13 18.3
2019-Jul-14 09:52 188 284 gusting 6 18.9
2019-Jul-14 09:43 18.9
2019-Jul-14 09:33 229 284 gusting 3 19.4
2019-Jul-14 09:23 19.4
2019-Jul-14 09:13 19.4
2019-Jul-14 09:03 19.4
2019-Jul-14 08:53 188 4 gusting 8 19.4
2019-Jul-14 08:42 158 4 gusting 8 19.4
2019-Jul-14 08:33 159 284 gusting 6 19.4
2019-Jul-14 08:23 19.4
2019-Jul-14 08:13 19.4
2019-Jul-14 08:02 229 1 gusting 3 18.9
2019-Jul-14 07:53 153 0 gusting 2 18.3
2019-Jul-14 07:42 114 1 gusting 5 17.8
2019-Jul-14 07:33 080 2 gusting 4 17.8
2019-Jul-14 07:23 126 17.2
2019-Jul-14 07:13 127 1 gusting 4 17.2
2019-Jul-14 07:02 121 0 gusting 5 16.7
2019-Jul-14 06:52 134 0 gusting 3 16.7
2019-Jul-14 06:42 080 0 gusting 5 16.7
2019-Jul-14 06:32 101 0 gusting 3 16.7
2019-Jul-14 06:23 085 0 gusting 3 16.1
2019-Jul-14 06:13 055 16.1
2019-Jul-14 06:03 056 0 gusting 4 16.1
2019-Jul-14 05:53 111 1 gusting 4 16.1
2019-Jul-14 05:42 121 0 gusting 4 16.1
2019-Jul-14 05:33 060 16.1
2019-Jul-14 05:22 040 0 gusting 3 16.1
2019-Jul-14 05:12 038 15.6
2019-Jul-14 05:03 039 15.6
2019-Jul-14 04:53 039 1 gusting 2 15.6
2019-Jul-14 04:42 038 15.6
2019-Jul-14 04:33 011 15.6
2019-Jul-14 04:23 011 15.6
2019-Jul-14 04:13 012 15.6
2019-Jul-14 04:03 012 15.6
2019-Jul-14 03:53 028 15.6
2019-Jul-14 03:43 028 15.6
2019-Jul-14 03:33 028 15.6
2019-Jul-14 03:22 028 15.6
2019-Jul-14 03:13 030 15.0
2019-Jul-14 03:02 030 0 gusting 2 15.0
2019-Jul-14 02:52 030 0 gusting 2 15.0
2019-Jul-14 02:42 030 15.0
2019-Jul-14 02:33 030 0 gusting 1 15.6
2019-Jul-14 02:23 217 0 gusting 2 15.6
2019-Jul-14 02:13 048 0 gusting 1 15.6
2019-Jul-14 02:03 048 0 gusting 2 15.6
2019-Jul-14 01:53 016 0 gusting 2 15.6
2019-Jul-14 01:43 245 15.6
2019-Jul-14 01:32 245 15.0
2019-Jul-14 01:22 245 15.0
2019-Jul-14 01:13 245 15.0
2019-Jul-14 00:52 245 1 gusting 3 15.0
2019-Jul-14 00:42 259 3 gusting 4 15.0
2019-Jul-14 00:32 255 3 gusting 6 15.0
2019-Jul-14 00:22 264 2 gusting 5 15.0
2019-Jul-14 00:13 258 3 gusting 6 15.0
2019-Jul-14 00:03 242 2 gusting 6 15.0